Home > Products > Valid Products > TAF

000
FTUS41 KCTP 092017 AAA
TAFIPT
TAF AMD
KIPT 092017Z 0920/1018 07007KT 3SM -SN BR OVC015
      TEMPO 0922/0923 1SM -SN BR OVC008
     FM100300 27005KT 3SM -SHSN BR BKN018 OVC030
     FM100900 27006KT P6SM BKN030=



000
FTUS41 KCTP 092016 AAB
TAFMDT
TAF AMD
KMDT 092016Z 0920/1018 VRB03KT 3/4SM -SN BR BKN006 OVC010
     FM100400 28005KT 2SM -SN BR OVC009
     FM100700 27006KT 4SM -SHSN BR BKN018 OVC030
     FM101000 30008KT P6SM BKN035=



000
FTUS41 KCTP 091957 AAA
TAFAOO
TAF AMD
KAOO 091957Z 0920/1018 26005KT 5SM -SN BR BKN020 OVC035
      TEMPO 0920/0922 28010KT 1SM -SN BR OVC015
     FM100000 27008KT 2SM -SHSN BR BKN015 OVC025
     FM100900 27011KT P6SM BKN025=



000
FTUS41 KCTP 091956 AAA
TAFUNV
TAF AMD
KUNV 091956Z 0920/1018 VRB03KT 4SM -SN BR BKN007 OVC014
      TEMPO 0920/0922 28010KT 1/2SM SN FG OVC007
     FM100100 27007KT 2SM -SHSN BR BKN015 OVC025
     FM100900 27009KT P6SM BKN025=



000
FTUS41 KCTP 091956 AAA
TAFUNV
TAF AMD
KUNV 091956Z 0920/1018 VRB03KT 4SM -SN BR BKN007 OVC014
      TEMPO 0920/0922 28010KT 1/2SM SN FG OVC007
     FM100100 27007KT 2SM -SHSN BR BKN015 OVC025
     FM100900 27009KT P6SM BKN025=



000
FTUS41 KCTP 091954 AAA
TAFJST
TAF AMD
KJST 091954Z 0920/1018 24010KT 1SM -SN BKN008 OVC012
     FM092300 26010KT 1 1/2SM -SN BR OVC007
     FM100200 27012G18KT 2SM -SN BR OVC007
     FM100900 27013G20KT 5SM -SHSN BR OVC009=



000
FTUS41 KCTP 091954 AAA
TAFJST
TAF AMD
KJST 091954Z 0920/1018 24010KT 1SM -SN BKN008 OVC012
     FM092300 26010KT 1 1/2SM -SN BR OVC007
     FM100200 27012G18KT 2SM -SN BR OVC007
     FM100900 27013G20KT 5SM -SHSN BR OVC009=



000
FTUS41 KCTP 091954 AAA
TAFJST
TAF AMD
KJST 091954Z 0920/1018 24010KT 1SM -SN BKN008 OVC012
     FM092300 26010KT 1 1/2SM -SN BR OVC007
     FM100200 27012G18KT 2SM -SN BR OVC007
     FM100900 27013G20KT 5SM -SHSN BR OVC009=



000
FTUS41 KCTP 091857 AAA
TAFMDT
TAF AMD
KMDT 091857Z 0919/1018 VRB03KT 1/2SM SN FG OVC010
     FM100400 28005KT 2SM -SN BR OVC009
     FM100700 27006KT 4SM -SHSN BR BKN018 OVC030
     FM101000 30008KT P6SM BKN035=



000
FTUS41 KCTP 091857 AAA
TAFMDT
TAF AMD
KMDT 091857Z 0919/1018 VRB03KT 1/2SM SN FG OVC010
     FM100400 28005KT 2SM -SN BR OVC009
     FM100700 27006KT 4SM -SHSN BR BKN018 OVC030
     FM101000 30008KT P6SM BKN035=



000
FTUS41 KCTP 091857 AAA
TAFMDT
TAF AMD
KMDT 091857Z 0919/1018 VRB03KT 1/2SM SN FG OVC010
     FM100400 28005KT 2SM -SN BR OVC009
     FM100700 27006KT 4SM -SHSN BR BKN018 OVC030
     FM101000 30008KT P6SM BKN035=



000
FTUS41 KCTP 091756
TAFUNV
TAF
KUNV 091756Z 0918/1018 VRB03KT 1SM -SN BR OVC007
     FM100100 27007KT 2SM -SHSN BR BKN015 OVC025
     FM100900 27009KT P6SM BKN025=



000
FTUS41 KCTP 091756
TAFBFD
TAF
KBFD 091756Z 0918/1018 25007KT P6SM -SHSN BKN025 OVC035
     FM100000 28005KT 4SM -SHSN BR OVC012
     FM100900 27008G14KT 1 1/2SM -SN BR OVC012=



000
FTUS41 KCTP 091756
TAFJST
TAF
KJST 091756Z 0918/1018 24010KT 1/2SM SN FG BKN007 OVC012
     FM092300 26010KT 1SM -SN BR OVC007
     FM100200 27012G18KT 2SM -SN BR OVC007
     FM100900 27013G20KT 5SM -SHSN BR OVC009=



000
FTUS41 KCTP 091756
TAFAOO
TAF
KAOO 091756Z 0918/1018 26005KT 3/4SM -SN BR OVC008
     FM091900 26006KT 1SM -SN BR OVC008
     FM100000 27008KT 2SM -SHSN BR BKN015 OVC025
     FM100900 27011KT P6SM BKN025=



000
FTUS41 KCTP 091756
TAFMDT
TAF
KMDT 091756Z 0918/1018 VRB03KT 1/4SM SN FG VV006
     FM092200 VRB03KT 1/2SM SN OVC006
     FM100400 28005KT 2SM -SN BR OVC009
     FM100700 27006KT 4SM -SHSN BR BKN018 OVC030
     FM101000 30008KT P6SM BKN035=



000
FTUS41 KCTP 091756
TAFIPT
TAF
KIPT 091756Z 0918/1018 07007KT 1 1/2SM -SN BR OVC015
     FM091930 09003KT 1 1/2SM -SN BR OVC008
     FM100300 27005KT 3SM -SHSN BR BKN018 OVC030
     FM100900 27006KT P6SM BKN030=



000
FTUS41 KCTP 091628 AAD
TAFAOO
TAF AMD
KAOO 091628Z 0916/1012 24005KT 3/4SM -SN BR OVC009
     FM100300 28008KT 3SM -SHSN BR OVC025
     FM100600 29008KT P6SM BKN030=



000
FTUS41 KCTP 091628 AAD
TAFAOO
TAF AMD
KAOO 091628Z 0916/1012 24005KT 3/4SM -SN BR OVC009
     FM100300 28008KT 3SM -SHSN BR OVC025
     FM100600 29008KT P6SM BKN030=



000
FTUS41 KCTP 091628 AAD
TAFAOO
TAF AMD
KAOO 091628Z 0916/1012 24005KT 3/4SM -SN BR OVC009
     FM100300 28008KT 3SM -SHSN BR OVC025
     FM100600 29008KT P6SM BKN030=



000
FTUS41 KCTP 091543 AAB
TAFIPT
TAF AMD
KIPT 091543Z 0916/1012 07007KT 1SM -SN BR OVC012
     FM092100 VRB03KT 1SM -SN BR OVC008
     FM100300 25007KT 4SM -SHSN BR OVC015
     FM100700 27007KT P6SM OVC035=



000
FTUS41 KCTP 091543 AAB
TAFJST
TAF AMD
KJST 091543Z 0916/1012 25006KT 1/2SM SN FG BKN005 OVC012
     FM092100 25007KT 1SM -SN BR OVC005
     FM100200 28010KT 2SM -SHSN BR OVC007
     FM101100 29010G20KT 3SM -SHSN BR OVC009=



000
FTUS41 KCTP 091543 AAC
TAFUNV
TAF AMD
KUNV 091543Z 0916/1012 VRB03KT 1SM -SN BR BKN005 OVC010
     FM091800 VRB03KT 3/4SM -SN BR OVC008
     FM100300 28008KT 3SM -SHSN BR OVC015
     FM100600 29008KT P6SM BKN030=



000
FTUS41 KCTP 091543 AAC
TAFAOO
TAF AMD
KAOO 091543Z 0916/1012 VRB03KT 1 1/2SM -SN BR BKN020 OVC030
     FM091800 24005KT 3/4SM -SN BR OVC012
     FM100300 28008KT 3SM -SHSN BR OVC025
     FM100600 29008KT P6SM BKN030=



000
FTUS41 KCTP 091543 AAB
TAFBFD
TAF AMD
KBFD 091543Z 0916/1012 20007KT 3SM -SN BR BKN009 OVC025
     FM091800 25005KT 1 1/2SM -SN BR BKN009 OVC015
     FM100000 28005KT 2SM -SN BR OVC012
     FM101100 29008G15KT 1SM -SHSN BR OVC009=



000
FTUS41 KCTP 091543 AAD
TAFMDT
TAF AMD
KMDT 091543Z 0916/1012 08005KT 1/4SM SN FG BKN005 OVC012
     FM092100 10005KT 1/2SM SN OVC012
     FM100400 26005KT 3SM -SHSN BR OVC015
     FM100700 30008G15KT P6SM BKN035=



000
FTUS41 KCTP 091452 AAC
TAFMDT
TAF AMD
KMDT 091452Z 0915/1012 10005KT 1/4SM SN FG OVC012
     FM091800 10005KT 1/2SM SN OVC008
     FM100400 26005KT 3SM -SHSN BR OVC015
     FM100700 30008G15KT P6SM BKN035=



000
FTUS41 KCTP 091322 AAB
TAFMDT
TAF AMD
KMDT 091322Z 0913/1012 10005KT 3/4SM -SN BR OVC012
     FM091500 10005KT 1/2SM SN OVC008
     FM100400 26005KT 3SM -SHSN BR OVC015
     FM100700 30008G15KT P6SM BKN035=



000
FTUS41 KCTP 091321 AAA
TAFIPT
TAF AMD
KIPT 091321Z 0913/1012 08008KT P6SM VCSH OVC014
     FM091500 08009KT 1 1/2SM -SN BR BKN006 OVC009
     FM100300 25007KT 4SM -SHSN BR OVC015
     FM100700 27007KT P6SM OVC035=



000
FTUS41 KCTP 091321 AAA
TAFIPT
TAF AMD
KIPT 091321Z 0913/1012 08008KT P6SM VCSH OVC014
     FM091500 08009KT 1 1/2SM -SN BR BKN006 OVC009
     FM100300 25007KT 4SM -SHSN BR OVC015
     FM100700 27007KT P6SM OVC035=



000
FTUS41 KCTP 091320 AAB
TAFUNV
TAF AMD
KUNV 091320Z 0913/1012 18005KT 1 1/2SM -SN BKN007 OVC012
     FM091500 VRB03KT 1 1/2SM -SN BR OVC008
     FM091700 13003KT 3/4SM -SN BR OVC008
     FM100300 28008KT 3SM -SHSN BR OVC015
     FM100600 29008KT P6SM BKN030=



000
FTUS41 KCTP 091318 AAB
TAFAOO
TAF AMD
KAOO 091318Z 0913/1012 13003KT 3/4SM -SN BR OVC015
     FM091800 26007KT 3/4SM -SN BR OVC008
     FM100300 28008KT 3SM -SHSN BR OVC015
     FM100600 29008KT P6SM BKN030=



000
FTUS41 KCTP 091318 AAB
TAFAOO
TAF AMD
KAOO 091318Z 0913/1012 13003KT 3/4SM -SN BR OVC015
     FM091800 26007KT 3/4SM -SN BR OVC008
     FM100300 28008KT 3SM -SHSN BR OVC015
     FM100600 29008KT P6SM BKN030=



000
FTUS41 KCTP 091318 AAA
TAFJST
TAF AMD
KJST 091318Z 0913/1012 29005KT 1 1/2SM -SN BKN005 OVC025
     FM091500 16005KT 1SM -SN BR OVC005
     FM091700 25007KT 3/4SM -SN BR OVC004
     FM100200 28010KT 2SM -SHSN BR OVC007
     FM101100 29010G20KT 3SM -SHSN BR OVC009=



000
FTUS41 KCTP 091318 AAB
TAFAOO
TAF AMD
KAOO 091318Z 0913/1012 13003KT 3/4SM -SN BR OVC015
     FM091800 26007KT 3/4SM -SN BR OVC008
     FM100300 28008KT 3SM -SHSN BR OVC015
     FM100600 29008KT P6SM BKN030=



000
FTUS41 KCTP 091317 AAA
TAFBFD
TAF AMD
KBFD 091317Z 0913/1012 20007KT 3SM -SN BR OVC007
     FM091500 23005KT 3SM -SN BR OVC010
     FM091900 27007KT 3/4SM -SN BR OVC008
     FM100000 28005KT 2SM -SN BR OVC010
     FM101100 29008G15KT 1SM -SHSN BR OVC009=



000
FTUS41 KCTP 091242 AAA
TAFUNV
TAF AMD
KUNV 091242Z 0913/1012 18005KT 2SM -SHSN BKN007 OVC012
     FM091500 VRB03KT 1 1/2SM -SN BR OVC008
     FM091700 13003KT 3/4SM -SN BR OVC008
     FM100300 28008KT 3SM -SHSN BR OVC015
     FM100600 29008KT P6SM BKN030=



000
FTUS41 KCTP 091240 AAA
TAFAOO
TAF AMD
KAOO 091240Z 0913/1012 13003KT 1SM -SN BR OVC010
     FM091800 26007KT 3/4SM -SN BR OVC008
     FM100300 28008KT 3SM -SHSN BR OVC015
     FM100600 29008KT P6SM BKN030=



000
FTUS41 KCTP 091138 AAA
TAFMDT
TAF AMD
KMDT 091138Z 0912/1012 11008KT 1SM -SN BR OVC008
     FM091500 10005KT 3/4SM -SN BR OVC006
     FM100400 26005KT 3SM -SHSN BR OVC015
     FM100700 30008G15KT P6SM BKN035=



000
FTUS41 KCTP 091127
TAFUNV
TAF
KUNV 091127Z 0912/1012 18005KT 5SM -SHSN BKN009 OVC012
     FM091300 13003KT 3SM -SN BR OVC010
     FM091500 VRB03KT 1 1/2SM -SN BR OVC008
     FM091700 13003KT 3/4SM -SN BR OVC008
     FM100300 28008KT 3SM -SHSN BR OVC015
     FM100600 29008KT P6SM BKN030=



000
FTUS41 KCTP 091127
TAFIPT
TAF
KIPT 091127Z 0912/1012 05010G20KT P6SM VCSH SCT006 OVC012
     FM091500 04008G16KT 1 1/2SM -SN BR BKN006 OVC009
     FM100300 25007KT 4SM -SHSN BR OVC015
     FM100700 27007KT P6SM OVC035=



000
FTUS41 KCTP 091127
TAFJST
TAF
KJST 091127Z 0912/1012 17006KT P6SM VCSH BKN012 OVC025
     FM091300 20003KT 1 1/2SM -SN OVC008
     FM091500 16005KT 1SM -SN BR OVC005
     FM091700 25007KT 3/4SM -SN BR OVC004
     FM100200 28010KT 2SM -SHSN BR OVC007
     FM101100 29010G20KT 3SM -SHSN BR OVC009=



000
FTUS41 KCTP 091127
TAFBFD
TAF
KBFD 091127Z 0912/1012 20007KT 3/4SM -SN BR OVC005
     FM091500 23005KT 3SM -SN BR OVC010
     FM091900 27007KT 3/4SM -SN BR OVC008
     FM100000 28005KT 2SM -SN BR OVC010
     FM101100 29008G15KT 1SM -SHSN BR OVC009=



000
FTUS41 KCTP 091127
TAFMDT
TAF
KMDT 091127Z 0912/1012 11008KT 3SM -SN BR OVC008
     FM091500 10005KT 1SM -SN BR OVC006
     FM100400 26005KT 3SM -SHSN BR OVC015
     FM100700 30008G15KT P6SM BKN035=



000
FTUS41 KCTP 091127
TAFAOO
TAF
KAOO 091127Z 0912/1012 25005KT 5SM -SHSN BR BKN010 OVC025
     FM091300 13003KT 3SM -SN BR OVC009
     FM091500 13003KT 1 1/2SM -SN BR OVC010
     FM091800 26007KT 3/4SM -SN BR OVC008
     FM100300 28008KT 3SM -SHSN BR OVC015
     FM100600 29008KT P6SM BKN030=



000
FTUS41 KCTP 091127
TAFUNV
TAF
KUNV 091127Z 0912/1012 18005KT 5SM -SHSN BKN009 OVC012
     FM091300 13003KT 3SM -SN BR OVC010
     FM091500 VRB03KT 1 1/2SM -SN BR OVC008
     FM091700 13003KT 3/4SM -SN BR OVC008
     FM100300 28008KT 3SM -SHSN BR OVC015
     FM100600 29008KT P6SM BKN030=



000
FTUS41 KCTP 091127
TAFUNV
TAF
KUNV 091127Z 0912/1012 18005KT 5SM -SHSN BKN009 OVC012
     FM091300 13003KT 3SM -SN BR OVC010
     FM091500 VRB03KT 1 1/2SM -SN BR OVC008
     FM091700 13003KT 3/4SM -SN BR OVC008
     FM100300 28008KT 3SM -SHSN BR OVC015
     FM100600 29008KT P6SM BKN030=



000
FTUS41 KCTP 091127
TAFIPT
TAF
KIPT 091127Z 0912/1012 05010G20KT P6SM VCSH SCT006 OVC012
     FM091500 04008G16KT 1 1/2SM -SN BR BKN006 OVC009
     FM100300 25007KT 4SM -SHSN BR OVC015
     FM100700 27007KT P6SM OVC035=



000
FTUS41 KCTP 091127
TAFMDT
TAF
KMDT 091127Z 0912/1012 11008KT 3SM -SN BR OVC008
     FM091500 10005KT 1SM -SN BR OVC006
     FM100400 26005KT 3SM -SHSN BR OVC015
     FM100700 30008G15KT P6SM BKN035=



000
FTUS41 KCTP 091127
TAFAOO
TAF
KAOO 091127Z 0912/1012 25005KT 5SM -SHSN BR BKN010 OVC025
     FM091300 13003KT 3SM -SN BR OVC009
     FM091500 13003KT 1 1/2SM -SN BR OVC010
     FM091800 26007KT 3/4SM -SN BR OVC008
     FM100300 28008KT 3SM -SHSN BR OVC015
     FM100600 29008KT P6SM BKN030=



000
FTUS41 KCTP 091127
TAFBFD
TAF
KBFD 091127Z 0912/1012 20007KT 3/4SM -SN BR OVC005
     FM091500 23005KT 3SM -SN BR OVC010
     FM091900 27007KT 3/4SM -SN BR OVC008
     FM100000 28005KT 2SM -SN BR OVC010
     FM101100 29008G15KT 1SM -SHSN BR OVC009=



000
FTUS41 KCTP 091127
TAFJST
TAF
KJST 091127Z 0912/1012 17006KT P6SM VCSH BKN012 OVC025
     FM091300 20003KT 1 1/2SM -SN OVC008
     FM091500 16005KT 1SM -SN BR OVC005
     FM091700 25007KT 3/4SM -SN BR OVC004
     FM100200 28010KT 2SM -SHSN BR OVC007
     FM101100 29010G20KT 3SM -SHSN BR OVC009=



000
FTUS41 KCTP 091025 AAC
TAFBFD
TAF AMD
KBFD 091025Z 0910/1006 20007KT 3/4SM -SN BR OVC005
     FM091500 23005KT 3SM -SN BR OVC010
     FM091900 27007KT 3/4SM -SN BR OVC008
     FM100000 28005KT 2SM -SN BR OVC010=



000
FTUS41 KCTP 091025 AAB
TAFUNV
TAF AMD
KUNV 091025Z 0910/1006 18005KT P6SM VCSH BKN009 OVC012
     FM091100 13003KT 3SM -SN BR OVC010
     FM091300 VRB03KT 1 1/2SM -SN BR OVC008
     FM091600 13003KT 3/4SM -SN BR OVC008
     FM100300 28008KT 3SM -SHSN BR OVC015=



000
FTUS41 KCTP 090936 AAA
TAFJST
TAF AMD
KJST 090936Z 0910/1006 17006KT P6SM VCSH BKN012 OVC025
     FM091100 20003KT 1 1/2SM -SN OVC008
     FM091300 16005KT 1SM -SN BR OVC005
     FM091500 25007KT 3/4SM -SN BR OVC004
     FM100200 28010KT 2SM -SHSN BR OVC007=



000
FTUS41 KCTP 090936 AAA
TAFUNV
TAF AMD
KUNV 090936Z 0910/1006 18005KT P6SM VCSH OVC012
     FM091100 13003KT 3SM -SN BR OVC010
     FM091300 VRB03KT 1 1/2SM -SN BR OVC008
     FM091600 13003KT 3/4SM -SN BR OVC008
     FM100300 28008KT 3SM -SHSN BR OVC015=



000
FTUS41 KCTP 090936 AAB
TAFMDT
TAF AMD
KMDT 090936Z 0910/1006 11008KT 3SM -SN BR OVC008
     FM091500 10005KT 1SM -SN BR OVC006
     FM100400 31005KT 3SM -SHSN BR OVC015=



000
FTUS41 KCTP 090936 AAB
TAFBFD
TAF AMD
KBFD 090936Z 0910/1006 17007KT 1SM -SN BR OVC006
     FM091500 23005KT 3SM -SN BR OVC010
     FM091900 27007KT 3/4SM -SN BR OVC008
     FM100000 28005KT 2SM -SN BR OVC010=



000
FTUS41 KCTP 090936 AAB
TAFAOO
TAF AMD
KAOO 090936Z 0910/1006 25005KT 5SM BR BKN010 OVC025
     FM091100 13003KT 3SM -SN BR OVC010
     FM091300 13003KT 1 1/2SM -SN BR OVC010
     FM091800 26007KT 3/4SM -SN BR OVC008
     FM100300 28008KT 3SM -SHSN BR OVC015=



000
FTUS41 KCTP 090936 AAC
TAFIPT
TAF AMD
KIPT 090936Z 0910/1006 05010G20KT P6SM VCSH SCT006 OVC012
     FM091500 04008G16KT 1 1/2SM -SN BR BKN006 OVC009
     FM100300 28007KT 4SM -SHSN BR OVC015=



000
FTUS41 KCTP 090734 AAB
TAFIPT
TAF AMD
KIPT 090734Z 0908/1006 08007KT 1 1/2SM -SN BR BKN006 OVC009
     FM100300 28007KT 4SM -SHSN BR OVC015=



000
FTUS41 KCTP 090732 AAA
TAFBFD
TAF AMD
KBFD 090732Z 0908/1006 17007KT P6SM VCSH BKN009 OVC015
     FM090900 19003KT 1 1/2SM -SN BR OVC006
     FM091500 23005KT 3SM -SN BR OVC010
     FM091900 27007KT 3/4SM -SN BR OVC008
     FM100000 28005KT 2SM -SN BR OVC010=



000
FTUS41 KCTP 090617 AAA
TAFIPT
TAF AMD
KIPT 090617Z 0906/1006 08005KT 2SM -SN BR BKN006 OVC009
     FM091300 09005KT 1 1/2SM -SN BR OVC009
     FM100300 28007KT 4SM -SHSN BR OVC015=



000
FTUS41 KCTP 090617 AAA
TAFAOO
TAF AMD
KAOO 090617Z 0906/1006 25005KT P6SM VCSH BKN015 OVC025
     FM090800 13003KT 3SM -SN BR OVC015
     FM091200 13003KT 1 1/2SM -SN BR OVC010
     FM091800 26007KT 3/4SM -SN BR OVC008
     FM100300 28008KT 3SM -SHSN BR OVC015=



000
FTUS41 KCTP 090617 AAA
TAFAOO
TAF AMD
KAOO 090617Z 0906/1006 25005KT P6SM VCSH BKN015 OVC025
     FM090800 13003KT 3SM -SN BR OVC015
     FM091200 13003KT 1 1/2SM -SN BR OVC010
     FM091800 26007KT 3/4SM -SN BR OVC008
     FM100300 28008KT 3SM -SHSN BR OVC015=



000
FTUS41 KCTP 090617 AAA
TAFIPT
TAF AMD
KIPT 090617Z 0906/1006 08005KT 2SM -SN BR BKN006 OVC009
     FM091300 09005KT 1 1/2SM -SN BR OVC009
     FM100300 28007KT 4SM -SHSN BR OVC015=



000
FTUS41 KCTP 090617 AAA
TAFIPT
TAF AMD
KIPT 090617Z 0906/1006 08005KT 2SM -SN BR BKN006 OVC009
     FM091300 09005KT 1 1/2SM -SN BR OVC009
     FM100300 28007KT 4SM -SHSN BR OVC015=



000
FTUS41 KCTP 090617 AAA
TAFAOO
TAF AMD
KAOO 090617Z 0906/1006 25005KT P6SM VCSH BKN015 OVC025
     FM090800 13003KT 3SM -SN BR OVC015
     FM091200 13003KT 1 1/2SM -SN BR OVC010
     FM091800 26007KT 3/4SM -SN BR OVC008
     FM100300 28008KT 3SM -SHSN BR OVC015=



000
FTUS41 KCTP 090616 AAA
TAFMDT
TAF AMD
KMDT 090616Z 0906/1006 12008KT 1 1/2SM -SN BR OVC006
     FM090900 10005KT 1SM -SN BR OVC005
     FM091500 09003KT 3/4SM -SN BR OVC005
     FM100400 31005KT 3SM -SHSN BR OVC015=



000
FTUS41 KCTP 090616 AAA
TAFMDT
TAF AMD
KMDT 090616Z 0906/1006 12008KT 1 1/2SM -SN BR OVC006
     FM090900 10005KT 1SM -SN BR OVC005
     FM091500 09003KT 3/4SM -SN BR OVC005
     FM100400 31005KT 3SM -SHSN BR OVC015=



000
FTUS41 KCTP 090527
TAFMDT
TAF
KMDT 090527Z 0906/1006 12008KT 2SM -SN BR OVC006
     FM090900 10005KT 1SM -SN BR OVC005
     FM091500 09003KT 3/4SM -SN BR OVC005
     FM100400 31005KT 3SM -SHSN BR OVC015=



000
FTUS41 KCTP 090527
TAFIPT
TAF
KIPT 090527Z 0906/1006 12007G16KT 5SM -SN BR BKN012 OVC020
     FM090900 08005KT 2SM -SN BR OVC009
     FM091300 09005KT 1 1/2SM -SN BR OVC009
     FM100300 28007KT 4SM -SHSN BR OVC015=



000
FTUS41 KCTP 090527
TAFBFD
TAF
KBFD 090527Z 0906/1006 17008KT P6SM VCSH BKN018 OVC025
     FM090900 19003KT 1 1/2SM -SN BR OVC010
     FM091500 23005KT 3SM -SN BR OVC010
     FM091900 27007KT 3/4SM -SN BR OVC008
     FM100000 28005KT 2SM -SN BR OVC010=



000
FTUS41 KCTP 090527
TAFUNV
TAF
KUNV 090527Z 0906/1006 18005KT P6SM VCSH OVC015
     FM090900 13003KT 3SM -SN BR OVC015
     FM091200 VRB03KT 1 1/2SM -SN BR OVC008
     FM091600 13003KT 3/4SM -SN BR OVC008
     FM100300 28008KT 3SM -SHSN BR OVC015=



000
FTUS41 KCTP 090527
TAFJST
TAF
KJST 090527Z 0906/1006 17007KT P6SM VCSH BKN018 OVC025
     FM090900 20003KT 1 1/2SM -SN OVC008
     FM091200 16005KT 1SM -SN BR OVC005
     FM091500 25007KT 3/4SM -SN BR OVC004
     FM100200 28010KT 2SM -SHSN BR OVC007=



000
FTUS41 KCTP 090527
TAFBFD
TAF
KBFD 090527Z 0906/1006 17008KT P6SM VCSH BKN018 OVC025
     FM090900 19003KT 1 1/2SM -SN BR OVC010
     FM091500 23005KT 3SM -SN BR OVC010
     FM091900 27007KT 3/4SM -SN BR OVC008
     FM100000 28005KT 2SM -SN BR OVC010=



000
FTUS41 KCTP 090527
TAFJST
TAF
KJST 090527Z 0906/1006 17007KT P6SM VCSH BKN018 OVC025
     FM090900 20003KT 1 1/2SM -SN OVC008
     FM091200 16005KT 1SM -SN BR OVC005
     FM091500 25007KT 3/4SM -SN BR OVC004
     FM100200 28010KT 2SM -SHSN BR OVC007=



000
FTUS41 KCTP 090527
TAFUNV
TAF
KUNV 090527Z 0906/1006 18005KT P6SM VCSH OVC015
     FM090900 13003KT 3SM -SN BR OVC015
     FM091200 VRB03KT 1 1/2SM -SN BR OVC008
     FM091600 13003KT 3/4SM -SN BR OVC008
     FM100300 28008KT 3SM -SHSN BR OVC015=



000
FTUS41 KCTP 090527
TAFAOO
TAF
KAOO 090527Z 0906/1006 25005KT P6SM VCSH SCT015 OVC025
     FM090800 13003KT 3SM -SN BR OVC015
     FM091200 13003KT 1 1/2SM -SN BR OVC010
     FM091800 26007KT 3/4SM -SN BR OVC008
     FM100300 28008KT 3SM -SHSN BR OVC015=



000
FTUS41 KCTP 090527
TAFAOO
TAF
KAOO 090527Z 0906/1006 25005KT P6SM VCSH SCT015 OVC025
     FM090800 13003KT 3SM -SN BR OVC015
     FM091200 13003KT 1 1/2SM -SN BR OVC010
     FM091800 26007KT 3/4SM -SN BR OVC008
     FM100300 28008KT 3SM -SHSN BR OVC015=



000
FTUS41 KCTP 090527
TAFIPT
TAF
KIPT 090527Z 0906/1006 12007G16KT 5SM -SN BR BKN012 OVC020
     FM090900 08005KT 2SM -SN BR OVC009
     FM091300 09005KT 1 1/2SM -SN BR OVC009
     FM100300 28007KT 4SM -SHSN BR OVC015=



000
FTUS41 KCTP 090527
TAFMDT
TAF
KMDT 090527Z 0906/1006 12008KT 2SM -SN BR OVC006
     FM090900 10005KT 1SM -SN BR OVC005
     FM091500 09003KT 3/4SM -SN BR OVC005
     FM100400 31005KT 3SM -SHSN BR OVC015=



000
FTUS41 KCTP 090413 AAB
TAFMDT
TAF AMD
KMDT 090413Z 0904/0924 10005KT 2SM -RASN BR OVC006
     FM090900 11005KT 1SM -SN BR OVC015
     FM091300 VRB03KT 3/4SM -SN BR OVC009=



000
FTUS41 KCTP 090412 AAB
TAFIPT
TAF AMD
KIPT 090412Z 0904/0924 10005KT P6SM VCSH OVC020
     FM090900 08005KT 2SM -SN BR OVC009
     FM091300 09005KT 1 1/2SM -SN BR OVC009=



000
FTUS41 KCTP 090412 AAB
TAFIPT
TAF AMD
KIPT 090412Z 0904/0924 10005KT P6SM VCSH OVC020
     FM090900 08005KT 2SM -SN BR OVC009
     FM091300 09005KT 1 1/2SM -SN BR OVC009=



000
FTUS41 KCTP 090412 AAB
TAFIPT
TAF AMD
KIPT 090412Z 0904/0924 10005KT P6SM VCSH OVC020
     FM090900 08005KT 2SM -SN BR OVC009
     FM091300 09005KT 1 1/2SM -SN BR OVC009=



000
FTUS41 KCTP 090410 AAB
TAFUNV
TAF AMD
KUNV 090410Z 0904/0924 15006KT P6SM VCSH BKN015 OVC025
     FM090900 13003KT 3SM -SN BR OVC015
     FM091200 VRB03KT 1 1/2SM -SN BR OVC008
     FM091600 13003KT 3/4SM -SN BR OVC008=



000
FTUS41 KCTP 090410 AAB
TAFAOO
TAF AMD
KAOO 090410Z 0904/0924 15008KT P6SM VCSH OVC030
     FM090800 13003KT 3SM -SN BR OVC025
     FM091200 13003KT 1 1/2SM -SN BR OVC010
     FM091800 26007KT 3/4SM -SN BR OVC008=



000
FTUS41 KCTP 090410 AAB
TAFAOO
TAF AMD
KAOO 090410Z 0904/0924 15008KT P6SM VCSH OVC030
     FM090800 13003KT 3SM -SN BR OVC025
     FM091200 13003KT 1 1/2SM -SN BR OVC010
     FM091800 26007KT 3/4SM -SN BR OVC008=



000
FTUS41 KCTP 090410 AAB
TAFUNV
TAF AMD
KUNV 090410Z 0904/0924 15006KT P6SM VCSH BKN015 OVC025
     FM090900 13003KT 3SM -SN BR OVC015
     FM091200 VRB03KT 1 1/2SM -SN BR OVC008
     FM091600 13003KT 3/4SM -SN BR OVC008=



000
FTUS41 KCTP 090410 AAB
TAFAOO
TAF AMD
KAOO 090410Z 0904/0924 15008KT P6SM VCSH OVC030
     FM090800 13003KT 3SM -SN BR OVC025
     FM091200 13003KT 1 1/2SM -SN BR OVC010
     FM091800 26007KT 3/4SM -SN BR OVC008=



000
FTUS41 KCTP 090410 AAB
TAFUNV
TAF AMD
KUNV 090410Z 0904/0924 15006KT P6SM VCSH BKN015 OVC025
     FM090900 13003KT 3SM -SN BR OVC015
     FM091200 VRB03KT 1 1/2SM -SN BR OVC008
     FM091600 13003KT 3/4SM -SN BR OVC008=



000
FTUS41 KCTP 090406 AAC
TAFJST
TAF AMD
KJST 090406Z 0904/0924 17009KT P6SM VCSH OVC025
     FM090800 16006KT 1 1/2SM -SN OVC010
     FM091000 16005KT 1SM -SN BR OVC005
     FM091500 25007KT 1SM -SN BR OVC005=



000
FTUS41 KCTP 090406 AAC
TAFJST
TAF AMD
KJST 090406Z 0904/0924 17009KT P6SM VCSH OVC025
     FM090800 16006KT 1 1/2SM -SN OVC010
     FM091000 16005KT 1SM -SN BR OVC005
     FM091500 25007KT 1SM -SN BR OVC005=



000
FTUS41 KCTP 090406 AAC
TAFJST
TAF AMD
KJST 090406Z 0904/0924 17009KT P6SM VCSH OVC025
     FM090800 16006KT 1 1/2SM -SN OVC010
     FM091000 16005KT 1SM -SN BR OVC005
     FM091500 25007KT 1SM -SN BR OVC005=



000
FTUS41 KCTP 090404 AAB
TAFBFD
TAF AMD
KBFD 090404Z 0904/0924 15008KT P6SM VCSH OVC020
     FM090600 15008KT 3SM -SN BR OVC015
     FM091000 16005KT 1SM -SN BR OVC008
     FM091800 27007KT 3/4SM -SN BR OVC008=



000
FTUS41 KCTP 090256 AAA
TAFMDT
TAF AMD
KMDT 090256Z 0903/0924 10009KT 4SM -SHRASN BR OVC015
     FM090400 11006KT 2SM -RASN BR OVC020
     FM090600 11005KT 1 1/2SM -SN BR OVC015
     FM091000 VRB03KT 3/4SM -SN BR OVC009=



000
FTUS41 KCTP 090256 AAA
TAFMDT
TAF AMD
KMDT 090256Z 0903/0924 10009KT 4SM -SHRASN BR OVC015
     FM090400 11006KT 2SM -RASN BR OVC020
     FM090600 11005KT 1 1/2SM -SN BR OVC015
     FM091000 VRB03KT 3/4SM -SN BR OVC009=



000
FTUS41 KCTP 090242 AAA
TAFIPT
TAF AMD
KIPT 090242Z 0903/0924 10005KT 4SM -SN BR OVC012
     FM090700 08005KT 1 1/2SM -SN BR OVC009
     FM091300 09005KT 1 1/2SM -SN BR OVC009=



000
FTUS41 KCTP 090242 AAA
TAFIPT
TAF AMD
KIPT 090242Z 0903/0924 10005KT 4SM -SN BR OVC012
     FM090700 08005KT 1 1/2SM -SN BR OVC009
     FM091300 09005KT 1 1/2SM -SN BR OVC009=



000
FTUS41 KCTP 090242 AAA
TAFIPT
TAF AMD
KIPT 090242Z 0903/0924 10005KT 4SM -SN BR OVC012
     FM090700 08005KT 1 1/2SM -SN BR OVC009
     FM091300 09005KT 1 1/2SM -SN BR OVC009=



000
FTUS41 KCTP 090241 AAA
TAFUNV
TAF AMD
KUNV 090241Z 0903/0924 15006KT P6SM VCSH OVC025
     FM090600 13003KT 3SM -SN BR OVC015
     FM090900 VRB03KT 1 1/2SM -SN BR OVC008
     FM091200 13003KT 3/4SM -SN BR OVC008=



000
FTUS41 KCTP 090240 AAA
TAFAOO
TAF AMD
KAOO 090240Z 0903/0924 15008KT P6SM VCSH OVC050
      TEMPO 0903/0906 4SM -SHSN BR OVC025
     FM090600 13003KT 3SM -SN BR OVC025
     FM090800 13003KT 1 1/2SM -SN BR OVC010
     FM091200 13003KT 3/4SM -SN BR OVC008
     FM091800 26007KT 3/4SM -SN BR OVC008=



000
FTUS41 KCTP 090238 AAB
TAFJST
TAF AMD
KJST 090238Z 0903/0924 17009KT P6SM VCSH OVC025
      TEMPO 0903/0906 2SM -SN BR OVC015
     FM090600 16006KT 1 1/2SM -SN OVC010
     FM090800 16005KT 3/4SM -SN BR OVC009
     FM091000 16005KT 3/4SM -SN BR OVC005
     FM091500 25007KT 3/4SM -SN BR OVC005=



000
FTUS41 KCTP 090238 AAB
TAFJST
TAF AMD
KJST 090238Z 0903/0924 17009KT P6SM VCSH OVC025
      TEMPO 0903/0906 2SM -SN BR OVC015
     FM090600 16006KT 1 1/2SM -SN OVC010
     FM090800 16005KT 3/4SM -SN BR OVC009
     FM091000 16005KT 3/4SM -SN BR OVC005
     FM091500 25007KT 3/4SM -SN BR OVC005=



000
FTUS41 KCTP 090237 AAA
TAFBFD
TAF AMD
KBFD 090237Z 0903/0924 15008KT P6SM VCSH OVC040
     FM090400 15008KT 3SM -SN BR OVC025
     FM090600 16005KT 1 1/2SM -SN BR OVC010
     FM091000 16003KT 3/4SM -SN BR OVC008
     FM091800 27007KT 3/4SM -SN BR OVC008=



000
FTUS41 KCTP 090237 AAA
TAFBFD
TAF AMD
KBFD 090237Z 0903/0924 15008KT P6SM VCSH OVC040
     FM090400 15008KT 3SM -SN BR OVC025
     FM090600 16005KT 1 1/2SM -SN BR OVC010
     FM091000 16003KT 3/4SM -SN BR OVC008
     FM091800 27007KT 3/4SM -SN BR OVC008=



000
FTUS41 KCTP 090237 AAA
TAFBFD
TAF AMD
KBFD 090237Z 0903/0924 15008KT P6SM VCSH OVC040
     FM090400 15008KT 3SM -SN BR OVC025
     FM090600 16005KT 1 1/2SM -SN BR OVC010
     FM091000 16003KT 3/4SM -SN BR OVC008
     FM091800 27007KT 3/4SM -SN BR OVC008=



000
FTUS41 KCTP 090113 AAA
TAFJST
TAF AMD
KJST 090113Z 0901/0924 17009KT P6SM VCSH OVC025
      TEMPO 0901/0903 1 1/2SM -SN BR OVC015
     FM090300 16006KT 1 1/2SM -SN OVC010
     FM090400 16005KT 3/4SM -SN BR OVC009
     FM090800 16005KT 3/4SM -SN BR OVC005
     FM091500 25007KT 3/4SM -SN BR OVC005=



000
FTUS41 KCTP 090113 AAA
TAFJST
TAF AMD
KJST 090113Z 0901/0924 17009KT P6SM VCSH OVC025
      TEMPO 0901/0903 1 1/2SM -SN BR OVC015
     FM090300 16006KT 1 1/2SM -SN OVC010
     FM090400 16005KT 3/4SM -SN BR OVC009
     FM090800 16005KT 3/4SM -SN BR OVC005
     FM091500 25007KT 3/4SM -SN BR OVC005=



000
FTUS41 KCTP 090113 AAA
TAFJST
TAF AMD
KJST 090113Z 0901/0924 17009KT P6SM VCSH OVC025
      TEMPO 0901/0903 1 1/2SM -SN BR OVC015
     FM090300 16006KT 1 1/2SM -SN OVC010
     FM090400 16005KT 3/4SM -SN BR OVC009
     FM090800 16005KT 3/4SM -SN BR OVC005
     FM091500 25007KT 3/4SM -SN BR OVC005=



000
FTUS41 KCTP 082335
TAFBFD
TAF
KBFD 082335Z 0900/0924 15008KT P6SM VCSH OVC040
     FM090200 15008KT 3SM -SN BR OVC025
     FM090400 16005KT 1 1/2SM -SN BR OVC010
     FM090800 16003KT 3/4SM -SN BR OVC008
     FM091800 27007KT 3/4SM -SN BR OVC008=



000
FTUS41 KCTP 082335
TAFMDT
TAF
KMDT 082335Z 0900/0924 10009KT P6SM VCSH OVC040
     FM090130 11006KT 2SM -RASN BR OVC020
     FM090300 11005KT 1 1/2SM -SN BR OVC015
     FM091000 VRB03KT 3/4SM -SN BR OVC009=



000
FTUS41 KCTP 082335
TAFJST
TAF
KJST 082335Z 0900/0924 17009KT P6SM VCSH OVC035
      TEMPO 0900/0902 4SM -SN BR OVC020
     FM090200 16006KT 1 1/2SM -SN OVC010
     FM090400 16005KT 3/4SM -SN BR OVC009
     FM090800 16005KT 3/4SM -SN BR OVC005
     FM091500 25007KT 3/4SM -SN BR OVC005=



000
FTUS41 KCTP 082335
TAFUNV
TAF
KUNV 082335Z 0900/0924 15006KT P6SM VCSH OVC050
     FM090300 13003KT 3SM -SN BR OVC015
     FM090500 VRB03KT 1 1/2SM -SN BR OVC008
     FM091200 13003KT 3/4SM -SN BR OVC008=



000
FTUS41 KCTP 082335
TAFUNV
TAF
KUNV 082335Z 0900/0924 15006KT P6SM VCSH OVC050
     FM090300 13003KT 3SM -SN BR OVC015
     FM090500 VRB03KT 1 1/2SM -SN BR OVC008
     FM091200 13003KT 3/4SM -SN BR OVC008=



000
FTUS41 KCTP 082335
TAFIPT
TAF
KIPT 082335Z 0900/0924 10005KT P6SM VCSH BKN080
     FM090200 09006KT 3SM -SN OVC025
     FM090700 08005KT 1 1/2SM -SN BR OVC015
     FM091300 09005KT 1 1/2SM -SN BR OVC009=



000
FTUS41 KCTP 082335
TAFBFD
TAF
KBFD 082335Z 0900/0924 15008KT P6SM VCSH OVC040
     FM090200 15008KT 3SM -SN BR OVC025
     FM090400 16005KT 1 1/2SM -SN BR OVC010
     FM090800 16003KT 3/4SM -SN BR OVC008
     FM091800 27007KT 3/4SM -SN BR OVC008=



000
FTUS41 KCTP 082335
TAFJST
TAF
KJST 082335Z 0900/0924 17009KT P6SM VCSH OVC035
      TEMPO 0900/0902 4SM -SN BR OVC020
     FM090200 16006KT 1 1/2SM -SN OVC010
     FM090400 16005KT 3/4SM -SN BR OVC009
     FM090800 16005KT 3/4SM -SN BR OVC005
     FM091500 25007KT 3/4SM -SN BR OVC005=



000
FTUS41 KCTP 082335
TAFMDT
TAF
KMDT 082335Z 0900/0924 10009KT P6SM VCSH OVC040
     FM090130 11006KT 2SM -RASN BR OVC020
     FM090300 11005KT 1 1/2SM -SN BR OVC015
     FM091000 VRB03KT 3/4SM -SN BR OVC009=



000
FTUS41 KCTP 082335
TAFUNV
TAF
KUNV 082335Z 0900/0924 15006KT P6SM VCSH OVC050
     FM090300 13003KT 3SM -SN BR OVC015
     FM090500 VRB03KT 1 1/2SM -SN BR OVC008
     FM091200 13003KT 3/4SM -SN BR OVC008=



000
FTUS41 KCTP 082335
TAFIPT
TAF
KIPT 082335Z 0900/0924 10005KT P6SM VCSH BKN080
     FM090200 09006KT 3SM -SN OVC025
     FM090700 08005KT 1 1/2SM -SN BR OVC015
     FM091300 09005KT 1 1/2SM -SN BR OVC009=



000
FTUS41 KCTP 082335
TAFBFD
TAF
KBFD 082335Z 0900/0924 15008KT P6SM VCSH OVC040
     FM090200 15008KT 3SM -SN BR OVC025
     FM090400 16005KT 1 1/2SM -SN BR OVC010
     FM090800 16003KT 3/4SM -SN BR OVC008
     FM091800 27007KT 3/4SM -SN BR OVC008=



000
FTUS41 KCTP 082335
TAFAOO
TAF
KAOO 082335Z 0900/0924 15008KT P6SM VCSH OVC050
     FM090300 13003KT 3SM -SN BR OVC015
     FM090500 13003KT 1 1/2SM -SN BR OVC010
     FM091200 13003KT 3/4SM -SN BR OVC008
     FM091800 26007KT 3/4SM -SN BR OVC008=



000
FTUS41 KCTP 082335
TAFAOO
TAF
KAOO 082335Z 0900/0924 15008KT P6SM VCSH OVC050
     FM090300 13003KT 3SM -SN BR OVC015
     FM090500 13003KT 1 1/2SM -SN BR OVC010
     FM091200 13003KT 3/4SM -SN BR OVC008
     FM091800 26007KT 3/4SM -SN BR OVC008=



000
FTUS41 KCTP 082335
TAFMDT
TAF
KMDT 082335Z 0900/0924 10009KT P6SM VCSH OVC040
     FM090130 11006KT 2SM -RASN BR OVC020
     FM090300 11005KT 1 1/2SM -SN BR OVC015
     FM091000 VRB03KT 3/4SM -SN BR OVC009=



000
FTUS41 KCTP 082335
TAFJST
TAF
KJST 082335Z 0900/0924 17009KT P6SM VCSH OVC035
      TEMPO 0900/0902 4SM -SN BR OVC020
     FM090200 16006KT 1 1/2SM -SN OVC010
     FM090400 16005KT 3/4SM -SN BR OVC009
     FM090800 16005KT 3/4SM -SN BR OVC005
     FM091500 25007KT 3/4SM -SN BR OVC005=



000
FTUS41 KCTP 082335
TAFAOO
TAF
KAOO 082335Z 0900/0924 15008KT P6SM VCSH OVC050
     FM090300 13003KT 3SM -SN BR OVC015
     FM090500 13003KT 1 1/2SM -SN BR OVC010
     FM091200 13003KT 3/4SM -SN BR OVC008
     FM091800 26007KT 3/4SM -SN BR OVC008=



000
FTUS41 KCTP 082335
TAFIPT
TAF
KIPT 082335Z 0900/0924 10005KT P6SM VCSH BKN080
     FM090200 09006KT 3SM -SN OVC025
     FM090700 08005KT 1 1/2SM -SN BR OVC015
     FM091300 09005KT 1 1/2SM -SN BR OVC009=



000
FTUS41 KCTP 082141 AAA
TAFMDT
TAF AMD
KMDT 082141Z 0822/0918 10009KT P6SM BKN120
     FM082300 14006KT P6SM VCSH BKN060 OVC100
     FM090100 13006KT 1 1/2SM -SN OVC025
     FM090400 13005KT 3/4SM -SN BR OVC015
     FM090800 13005KT 3/4SM -SN BR OVC009=



000
FTUS41 KCTP 082141 AAA
TAFIPT
TAF AMD
KIPT 082141Z 0822/0918 12005KT P6SM BKN120
     FM090000 09006KT P6SM VCSH BKN060 OVC100
     FM090200 09006KT 2SM -SN OVC025
     FM090500 09005KT 1 1/2SM -SN BR OVC015
     FM090800 09005KT 3SM -SN BR OVC009=



000
FTUS41 KCTP 082140 AAA
TAFUNV
TAF AMD
KUNV 082140Z 0822/0918 15006KT P6SM OVC090
     FM082300 13006KT 2SM -SN OVC025
     FM090100 13005KT 1SM -SN BR OVC015
     FM090400 13005KT 3SM -SN BR OVC009=



000
FTUS41 KCTP 082139 AAA
TAFAOO
TAF AMD
KAOO 082139Z 0822/0918 16008KT P6SM OVC090
     FM082300 13006KT 2SM -SN OVC025
     FM090100 13005KT 3/4SM -SN BR OVC015
     FM090400 13005KT 1 1/2SM -SN BR OVC009=



000
FTUS41 KCTP 082138 AAA
TAFJST
TAF AMD
KJST 082138Z 0822/0918 13010G17KT P6SM VCSH BKN060 OVC100
     FM082230 16006KT 1 1/2SM -SN OVC020
     FM090100 16005KT 3/4SM -SN BR OVC009
     FM090400 16005KT 3/4SM -SN BR OVC005=



000
FTUS41 KCTP 082137 AAA
TAFBFD
TAF AMD
KBFD 082137Z 0822/0918 14009G16KT P6SM VCSH OVC060
     FM082300 15008KT 6SM -SN BR OVC030
     FM090000 16006KT 3SM -SN OVC025
     FM090200 16005KT 1 1/2SM -SN BR OVC015
     FM090600 16005KT 1 1/2SM -SN BR OVC008=



000
FTUS41 KCTP 081734
TAFJST
TAF
KJST 081734Z 0818/0918 15012G20KT P6SM BKN120
     FM082100 15008KT P6SM VCSH BKN060 OVC100
     FM082300 16006KT 1 1/2SM -SN OVC020
     FM090100 16005KT 3/4SM -SN BR OVC009
     FM090400 16005KT 3/4SM -SN BR OVC005=



000
FTUS41 KCTP 081734
TAFMDT
TAF
KMDT 081734Z 0818/0918 09010KT P6SM BKN250
     FM081900 13006KT P6SM SCT060 OVC150
     FM082300 14006KT P6SM VCSH BKN060 OVC100
     FM090100 13006KT 1 1/2SM -SN OVC025
     FM090400 13005KT 3/4SM -SN BR OVC015
     FM090800 13005KT 3/4SM -SN BR OVC009=



000
FTUS41 KCTP 081734
TAFUNV
TAF
KUNV 081734Z 0818/0918 12006KT P6SM SCT100 BKN250
     FM082200 14006KT P6SM VCSH BKN060 OVC100
     FM082300 13006KT 2SM -SN OVC025
     FM090100 13005KT 1SM -SN BR OVC015
     FM090400 13005KT 3SM -SN BR OVC009=



000
FTUS41 KCTP 081734
TAFAOO
TAF
KAOO 081734Z 0818/0918 16008G17KT P6SM BKN120 OVC250
     FM082100 14006KT P6SM VCSH BKN060 OVC100
     FM082230 13006KT 1 1/2SM -SN OVC025
     FM090100 13005KT 3/4SM -SN BR OVC015
     FM090400 13005KT 1 1/2SM -SN BR OVC009=



000
FTUS41 KCTP 081734
TAFBFD
TAF
KBFD 081734Z 0818/0918 14009G16KT P6SM BKN050
     FM082000 15008KT P6SM VCSH BKN040 OVC100
     FM082200 16006KT 3SM -SN OVC025
     FM090100 16005KT 1 1/2SM -SN BR OVC015
     FM090600 16005KT 1 1/2SM -SN BR OVC008=



000
FTUS41 KCTP 081734
TAFIPT
TAF
KIPT 081734Z 0818/0918 VRB04KT P6SM BKN250
     FM082200 10006KT P6SM SCT060 OVC100
     FM090000 09006KT P6SM VCSH BKN060 OVC100
     FM090200 09006KT 2SM -SN OVC025
     FM090500 09005KT 1 1/2SM -SN BR OVC015
     FM090800 09005KT 3SM -SN BR OVC009=



000
FTUS41 KCTP 081620 AAA
TAFBFD
TAF AMD
KBFD 081620Z 0816/0912 17009G16KT P6SM SCT045 BKN050
     FM082000 15008KT P6SM VCSH BKN060 OVC100
     FM082200 16006KT 3SM -SN OVC025
     FM090100 16005KT 1 1/2SM -SN BR OVC015
     FM090600 16005KT 1 1/2SM -SN BR OVC008=



000
FTUS41 KCTP 081620 AAA
TAFUNV
TAF AMD
KUNV 081620Z 0816/0912 VRB04KT P6SM SCT100 BKN250
     FM082200 14006KT P6SM VCSH BKN060 OVC100
     FM082300 13006KT 2SM -SN OVC025
     FM090100 13005KT 1SM -SN BR OVC015
     FM090400 13005KT 3SM -SN BR OVC009=



000
FTUS41 KCTP 081620 AAA
TAFJST
TAF AMD
KJST 081620Z 0816/0912 15012G20KT P6SM BKN120
     FM081900 15008KT P6SM VCSH BKN060 OVC100
     FM082100 16006KT 1 1/2SM -SN OVC020
     FM090000 16005KT 3/4SM -SN BR OVC009
     FM090400 16005KT 3/4SM -SN BR OVC005=



000
FTUS41 KCTP 081620 AAA
TAFMDT
TAF AMD
KMDT 081620Z 0816/0912 09010KT P6SM BKN250
     FM081900 13006KT P6SM SCT060 OVC150
     FM082300 14006KT P6SM VCSH BKN060 OVC100
     FM090100 13006KT 1 1/2SM -SN OVC025
     FM090400 13005KT 3/4SM -SN BR OVC015
     FM090800 13005KT 3/4SM -SN BR OVC009=



000
FTUS41 KCTP 081620 AAB
TAFAOO
TAF AMD
KAOO 081620Z 0816/0912 18007KT P6SM SCT050 BKN120
     FM082100 14006KT P6SM VCSH BKN060 OVC100
     FM082230 13006KT 1 1/2SM -SN OVC025
     FM090100 13005KT 3/4SM -SN BR OVC015
     FM090400 13005KT 1 1/2SM -SN BR OVC009=



000
FTUS41 KCTP 081620 AAA
TAFIPT
TAF AMD
KIPT 081620Z 0816/0912 10010KT P6SM BKN250
     FM081800 09006KT P6SM SCT060 OVC100
     FM090000 09006KT P6SM VCSH BKN060 OVC100
     FM090200 09006KT 2SM -SN OVC025
     FM090500 09005KT 1 1/2SM -SN BR OVC015
     FM090800 09005KT 3SM -SN BR OVC009=



000
FTUS41 KCTP 081401 AAA
TAFAOO
TAF AMD
KAOO 081401Z 0814/0912 VRB03KT 3SM BR SCT120 BKN250
     FM081500 VRB03KT P6SM SCT050 BKN120
     FM082100 14006KT P6SM VCSH BKN060 OVC100
     FM082230 13006KT 1 1/2SM -SN OVC025
     FM090100 13005KT 3/4SM -SN BR OVC015
     FM090400 13005KT 1 1/2SM -SN BR OVC009=



000
FTUS41 KCTP 081401 AAA
TAFAOO
TAF AMD
KAOO 081401Z 0814/0912 VRB03KT 3SM BR SCT120 BKN250
     FM081500 VRB03KT P6SM SCT050 BKN120
     FM082100 14006KT P6SM VCSH BKN060 OVC100
     FM082230 13006KT 1 1/2SM -SN OVC025
     FM090100 13005KT 3/4SM -SN BR OVC015
     FM090400 13005KT 1 1/2SM -SN BR OVC009=



000
FTUS41 KCTP 081401 AAA
TAFAOO
TAF AMD
KAOO 081401Z 0814/0912 VRB03KT 3SM BR SCT120 BKN250
     FM081500 VRB03KT P6SM SCT050 BKN120
     FM082100 14006KT P6SM VCSH BKN060 OVC100
     FM082230 13006KT 1 1/2SM -SN OVC025
     FM090100 13005KT 3/4SM -SN BR OVC015
     FM090400 13005KT 1 1/2SM -SN BR OVC009=



000
FTUS41 KCTP 081143
TAFJST
TAF
KJST 081143Z 0812/0912 16005KT P6SM BKN120
     FM081600 15008KT P6SM SCT060 OVC100
     FM081900 15008KT P6SM VCSH BKN060 OVC100
     FM082100 16006KT 1 1/2SM -SN OVC020
     FM090000 16005KT 3/4SM -SN BR OVC009
     FM090400 16005KT 3/4SM -SN BR OVC005=



000
FTUS41 KCTP 081143
TAFUNV
TAF
KUNV 081143Z 0812/0912 14004KT P6SM FEW060 BKN150
     FM082200 14006KT P6SM VCSH BKN060 OVC100
     FM082300 13006KT 2SM -SN OVC025
     FM090100 13005KT 1SM -SN BR OVC015
     FM090400 13005KT 3SM -SN BR OVC009=



000
FTUS41 KCTP 081143
TAFMDT
TAF
KMDT 081143Z 0812/0912 31006KT P6SM BKN200
     FM081800 13006KT P6SM SCT060 OVC150
     FM082300 14006KT P6SM VCSH BKN060 OVC100
     FM090100 13006KT 1 1/2SM -SN OVC025
     FM090400 13005KT 3/4SM -SN BR OVC015
     FM090800 13005KT 3/4SM -SN BR OVC009=



000
FTUS41 KCTP 081143
TAFIPT
TAF
KIPT 081143Z 0812/0912 00000KT P6SM BKN150
     FM081800 09006KT P6SM SCT060 OVC100
     FM090000 09006KT P6SM VCSH BKN060 OVC100
     FM090200 09006KT 2SM -SN OVC025
     FM090500 09005KT 1 1/2SM -SN BR OVC015
     FM090800 09005KT 3SM -SN BR OVC009=



000
FTUS41 KCTP 081143
TAFBFD
TAF
KBFD 081143Z 0812/0912 14004KT P6SM BKN120
     FM081400 15008KT P6SM SCT060 OVC100
     FM082000 15008KT P6SM VCSH BKN060 OVC100
     FM082200 16006KT 3SM -SN OVC025
     FM090100 16005KT 1 1/2SM -SN BR OVC015
     FM090600 16005KT 1 1/2SM -SN BR OVC008=



000
FTUS41 KCTP 081143
TAFAOO
TAF
KAOO 081143Z 0812/0912 14004KT P6SM FEW060 BKN120
     FM082100 14006KT P6SM VCSH BKN060 OVC100
     FM082230 13006KT 1 1/2SM -SN OVC025
     FM090100 13005KT 3/4SM -SN BR OVC015
     FM090400 13005KT 1 1/2SM -SN BR OVC009=



000
FTUS41 KCTP 081143
TAFBFD
TAF
KBFD 081143Z 0812/0912 14004KT P6SM BKN120
     FM081400 15008KT P6SM SCT060 OVC100
     FM082000 15008KT P6SM VCSH BKN060 OVC100
     FM082200 16006KT 3SM -SN OVC025
     FM090100 16005KT 1 1/2SM -SN BR OVC015
     FM090600 16005KT 1 1/2SM -SN BR OVC008=



000
FTUS41 KCTP 081143
TAFIPT
TAF
KIPT 081143Z 0812/0912 00000KT P6SM BKN150
     FM081800 09006KT P6SM SCT060 OVC100
     FM090000 09006KT P6SM VCSH BKN060 OVC100
     FM090200 09006KT 2SM -SN OVC025
     FM090500 09005KT 1 1/2SM -SN BR OVC015
     FM090800 09005KT 3SM -SN BR OVC009=



000
FTUS41 KCTP 081143
TAFMDT
TAF
KMDT 081143Z 0812/0912 31006KT P6SM BKN200
     FM081800 13006KT P6SM SCT060 OVC150
     FM082300 14006KT P6SM VCSH BKN060 OVC100
     FM090100 13006KT 1 1/2SM -SN OVC025
     FM090400 13005KT 3/4SM -SN BR OVC015
     FM090800 13005KT 3/4SM -SN BR OVC009=



000
FTUS41 KCTP 081143
TAFUNV
TAF
KUNV 081143Z 0812/0912 14004KT P6SM FEW060 BKN150
     FM082200 14006KT P6SM VCSH BKN060 OVC100
     FM082300 13006KT 2SM -SN OVC025
     FM090100 13005KT 1SM -SN BR OVC015
     FM090400 13005KT 3SM -SN BR OVC009=



000
FTUS41 KCTP 081143
TAFIPT
TAF
KIPT 081143Z 0812/0912 00000KT P6SM BKN150
     FM081800 09006KT P6SM SCT060 OVC100
     FM090000 09006KT P6SM VCSH BKN060 OVC100
     FM090200 09006KT 2SM -SN OVC025
     FM090500 09005KT 1 1/2SM -SN BR OVC015
     FM090800 09005KT 3SM -SN BR OVC009=



000
FTUS41 KCTP 081143
TAFAOO
TAF
KAOO 081143Z 0812/0912 14004KT P6SM FEW060 BKN120
     FM082100 14006KT P6SM VCSH BKN060 OVC100
     FM082230 13006KT 1 1/2SM -SN OVC025
     FM090100 13005KT 3/4SM -SN BR OVC015
     FM090400 13005KT 1 1/2SM -SN BR OVC009=



000
FTUS41 KCTP 081143
TAFAOO
TAF
KAOO 081143Z 0812/0912 14004KT P6SM FEW060 BKN120
     FM082100 14006KT P6SM VCSH BKN060 OVC100
     FM082230 13006KT 1 1/2SM -SN OVC025
     FM090100 13005KT 3/4SM -SN BR OVC015
     FM090400 13005KT 1 1/2SM -SN BR OVC009=



000
FTUS41 KCTP 081143
TAFBFD
TAF
KBFD 081143Z 0812/0912 14004KT P6SM BKN120
     FM081400 15008KT P6SM SCT060 OVC100
     FM082000 15008KT P6SM VCSH BKN060 OVC100
     FM082200 16006KT 3SM -SN OVC025
     FM090100 16005KT 1 1/2SM -SN BR OVC015
     FM090600 16005KT 1 1/2SM -SN BR OVC008=



000
FTUS41 KCTP 081143
TAFMDT
TAF
KMDT 081143Z 0812/0912 31006KT P6SM BKN200
     FM081800 13006KT P6SM SCT060 OVC150
     FM082300 14006KT P6SM VCSH BKN060 OVC100
     FM090100 13006KT 1 1/2SM -SN OVC025
     FM090400 13005KT 3/4SM -SN BR OVC015
     FM090800 13005KT 3/4SM -SN BR OVC009=



000
FTUS41 KCTP 081143
TAFJST
TAF
KJST 081143Z 0812/0912 16005KT P6SM BKN120
     FM081600 15008KT P6SM SCT060 OVC100
     FM081900 15008KT P6SM VCSH BKN060 OVC100
     FM082100 16006KT 1 1/2SM -SN OVC020
     FM090000 16005KT 3/4SM -SN BR OVC009
     FM090400 16005KT 3/4SM -SN BR OVC005=



000
FTUS41 KCTP 081143
TAFJST
TAF
KJST 081143Z 0812/0912 16005KT P6SM BKN120
     FM081600 15008KT P6SM SCT060 OVC100
     FM081900 15008KT P6SM VCSH BKN060 OVC100
     FM082100 16006KT 1 1/2SM -SN OVC020
     FM090000 16005KT 3/4SM -SN BR OVC009
     FM090400 16005KT 3/4SM -SN BR OVC005=



000
FTUS41 KCTP 081143
TAFUNV
TAF
KUNV 081143Z 0812/0912 14004KT P6SM FEW060 BKN150
     FM082200 14006KT P6SM VCSH BKN060 OVC100
     FM082300 13006KT 2SM -SN OVC025
     FM090100 13005KT 1SM -SN BR OVC015
     FM090400 13005KT 3SM -SN BR OVC009=



000
FTUS41 KCTP 080936 AAA
TAFBFD
TAF AMD
KBFD 080936Z 0810/0906 13004KT P6SM BKN120
     FM081300 17008KT P6SM BKN090 OVC150
     FM081900 14008KT P6SM VCSH OVC040
     FM082200 14008KT 6SM -SN OVC025
     FM090100 16005KT 2SM -SN BR OVC010=



000
FTUS41 KCTP 080936 AAA
TAFJST
TAF AMD
KJST 080936Z 0810/0906 VRB03KT P6SM BKN120
     FM081200 16005KT P6SM BKN120
     FM081900 14008KT 5SM -SHSN OVC030
     FM082000 14008KT 2SM -SN BR OVC010
     FM082200 14005KT 1SM -SN BR OVC008
     FM090200 16005KT 3/4SM -SN BR OVC004=



000
FTUS41 KCTP 080936 AAA
TAFMDT
TAF AMD
KMDT 080936Z 0810/0906 31006KT P6SM BKN200
     FM081400 08005KT P6SM BKN080
     FM082200 12006KT P6SM VCSH OVC040
     FM090100 12007KT 2SM -SN BR OVC015=



000
FTUS41 KCTP 080936 AAA
TAFIPT
TAF AMD
KIPT 080936Z 0810/0906 VRB03KT P6SM SCT200
     FM081300 09005KT P6SM OVC070
     FM082200 12008KT P6SM -SHSN OVC040
     FM090200 10003KT 2SM -SN BR OVC020=



000
FTUS41 KCTP 080936 AAA
TAFUNV
TAF AMD
KUNV 080936Z 0810/0906 VRB03KT P6SM SCT200
     FM081200 15004KT P6SM BKN120
     FM082000 15007KT P6SM -SHSN OVC040
     FM082200 15007KT 4SM -SN BR OVC020
     FM090200 13003KT 1SM -SN BR OVC008=



000
FTUS41 KCTP 080936 AAA
TAFAOO
TAF AMD
KAOO 080936Z 0810/0906 VRB03KT 6SM BR SCT200
     FM081200 15004KT P6SM BKN120
     FM081900 15007KT P6SM -SHSN OVC040
     FM082000 15007KT 3SM -SN BR OVC015
     FM090200 13003KT 1SM -SN BR OVC008=



000
FTUS41 KCTP 080528
TAFJST
TAF
KJST 080528Z 0806/0906 VRB03KT P6SM BKN120
     FM081000 16005KT P6SM BKN120
     FM081900 14008KT 5SM -SHSN OVC030
     FM082000 14008KT 2SM -SN BR OVC010
     FM082200 14005KT 1SM -SN BR OVC008
     FM090200 16005KT 3/4SM -SN BR OVC004=



000
FTUS41 KCTP 080528
TAFBFD
TAF
KBFD 080528Z 0806/0906 13004KT P6SM BKN120
     FM081000 17008KT P6SM BKN090 OVC150
     FM081900 14008KT P6SM VCSH OVC040
     FM082200 14008KT 6SM -SN OVC025
     FM090100 16005KT 2SM -SN BR OVC010=



000
FTUS41 KCTP 080528
TAFAOO
TAF
KAOO 080528Z 0806/0906 VRB03KT P6SM SCT200
     FM081200 15004KT P6SM BKN120
     FM081900 15007KT P6SM -SHSN OVC040
     FM082000 15007KT 3SM -SN BR OVC015
     FM090200 13003KT 1SM -SN BR OVC008=



000
FTUS41 KCTP 080528
TAFMDT
TAF
KMDT 080528Z 0806/0906 VRB03KT P6SM BKN200
     FM081400 08005KT P6SM BKN080
     FM082200 12006KT P6SM VCSH OVC040
     FM090100 12007KT 2SM -SN BR OVC015=



000
FTUS41 KCTP 080528
TAFJST
TAF
KJST 080528Z 0806/0906 VRB03KT P6SM BKN120
     FM081000 16005KT P6SM BKN120
     FM081900 14008KT 5SM -SHSN OVC030
     FM082000 14008KT 2SM -SN BR OVC010
     FM082200 14005KT 1SM -SN BR OVC008
     FM090200 16005KT 3/4SM -SN BR OVC004=



000
FTUS41 KCTP 080528
TAFIPT
TAF
KIPT 080528Z 0806/0906 VRB03KT P6SM SCT200
     FM081300 09005KT P6SM OVC070
     FM082200 12008KT P6SM -SHSN OVC040
     FM090200 10003KT 2SM -SN BR OVC020=



000
FTUS41 KCTP 080528
TAFMDT
TAF
KMDT 080528Z 0806/0906 VRB03KT P6SM BKN200
     FM081400 08005KT P6SM BKN080
     FM082200 12006KT P6SM VCSH OVC040
     FM090100 12007KT 2SM -SN BR OVC015=



000
FTUS41 KCTP 080528
TAFUNV
TAF
KUNV 080528Z 0806/0906 VRB03KT P6SM SCT200
     FM081200 15004KT P6SM BKN120
     FM082000 15007KT P6SM -SHSN OVC040
     FM082200 15007KT 4SM -SN BR OVC020
     FM090200 13003KT 1SM -SN BR OVC008=



000
FTUS41 KCTP 080528
TAFUNV
TAF
KUNV 080528Z 0806/0906 VRB03KT P6SM SCT200
     FM081200 15004KT P6SM BKN120
     FM082000 15007KT P6SM -SHSN OVC040
     FM082200 15007KT 4SM -SN BR OVC020
     FM090200 13003KT 1SM -SN BR OVC008=



000
FTUS41 KCTP 080528
TAFBFD
TAF
KBFD 080528Z 0806/0906 13004KT P6SM BKN120
     FM081000 17008KT P6SM BKN090 OVC150
     FM081900 14008KT P6SM VCSH OVC040
     FM082200 14008KT 6SM -SN OVC025
     FM090100 16005KT 2SM -SN BR OVC010=



000
FTUS41 KCTP 080528
TAFAOO
TAF
KAOO 080528Z 0806/0906 VRB03KT P6SM SCT200
     FM081200 15004KT P6SM BKN120
     FM081900 15007KT P6SM -SHSN OVC040
     FM082000 15007KT 3SM -SN BR OVC015
     FM090200 13003KT 1SM -SN BR OVC008=



000
FTUS41 KCTP 080528
TAFIPT
TAF
KIPT 080528Z 0806/0906 VRB03KT P6SM SCT200
     FM081300 09005KT P6SM OVC070
     FM082200 12008KT P6SM -SHSN OVC040
     FM090200 10003KT 2SM -SN BR OVC020=



000
FTUS41 KCTP 080528
TAFUNV
TAF
KUNV 080528Z 0806/0906 VRB03KT P6SM SCT200
     FM081200 15004KT P6SM BKN120
     FM082000 15007KT P6SM -SHSN OVC040
     FM082200 15007KT 4SM -SN BR OVC020
     FM090200 13003KT 1SM -SN BR OVC008=



000
FTUS41 KCTP 080528
TAFMDT
TAF
KMDT 080528Z 0806/0906 VRB03KT P6SM BKN200
     FM081400 08005KT P6SM BKN080
     FM082200 12006KT P6SM VCSH OVC040
     FM090100 12007KT 2SM -SN BR OVC015=



000
FTUS41 KCTP 080528
TAFIPT
TAF
KIPT 080528Z 0806/0906 VRB03KT P6SM SCT200
     FM081300 09005KT P6SM OVC070
     FM082200 12008KT P6SM -SHSN OVC040
     FM090200 10003KT 2SM -SN BR OVC020=



000
FTUS41 KCTP 080528
TAFBFD
TAF
KBFD 080528Z 0806/0906 13004KT P6SM BKN120
     FM081000 17008KT P6SM BKN090 OVC150
     FM081900 14008KT P6SM VCSH OVC040
     FM082200 14008KT 6SM -SN OVC025
     FM090100 16005KT 2SM -SN BR OVC010=



000
FTUS41 KCTP 080528
TAFJST
TAF
KJST 080528Z 0806/0906 VRB03KT P6SM BKN120
     FM081000 16005KT P6SM BKN120
     FM081900 14008KT 5SM -SHSN OVC030
     FM082000 14008KT 2SM -SN BR OVC010
     FM082200 14005KT 1SM -SN BR OVC008
     FM090200 16005KT 3/4SM -SN BR OVC004=



000
FTUS41 KCTP 080528
TAFAOO
TAF
KAOO 080528Z 0806/0906 VRB03KT P6SM SCT200
     FM081200 15004KT P6SM BKN120
     FM081900 15007KT P6SM -SHSN OVC040
     FM082000 15007KT 3SM -SN BR OVC015
     FM090200 13003KT 1SM -SN BR OVC008=



000
FTUS41 KCTP 080333 AAA
TAFMDT
TAF AMD
KMDT 080333Z 0804/0824 VRB03KT P6SM BKN200
     FM081400 08005KT P6SM BKN080
     FM082200 12006KT P6SM VCSH OVC040=



000
FTUS41 KCTP 080333 AAA
TAFMDT
TAF AMD
KMDT 080333Z 0804/0824 VRB03KT P6SM BKN200
     FM081400 08005KT P6SM BKN080
     FM082200 12006KT P6SM VCSH OVC040=



000
FTUS41 KCTP 080333 AAA
TAFMDT
TAF AMD
KMDT 080333Z 0804/0824 VRB03KT P6SM BKN200
     FM081400 08005KT P6SM BKN080
     FM082200 12006KT P6SM VCSH OVC040=



000
FTUS41 KCTP 080332 AAA
TAFIPT
TAF AMD
KIPT 080332Z 0804/0824 VRB03KT P6SM SCT200
     FM081300 09005KT P6SM OVC070
     FM082200 12008KT P6SM -SHSN OVC040=



000
FTUS41 KCTP 080332 AAA
TAFUNV
TAF AMD
KUNV 080332Z 0804/0824 VRB03KT P6SM SCT200
     FM081200 15004KT P6SM BKN120
     FM082000 15007KT P6SM -SHSN OVC040
     FM082200 15007KT 4SM -SN BR OVC020=



000
FTUS41 KCTP 080332 AAA
TAFAOO
TAF AMD
KAOO 080332Z 0804/0824 VRB03KT P6SM SCT200
     FM081200 15004KT P6SM BKN120
     FM081900 15007KT P6SM -SHSN OVC040
     FM082000 15007KT 3SM -SN BR OVC015=



000
FTUS41 KCTP 080332 AAA
TAFJST
TAF AMD
KJST 080332Z 0804/0824 VRB03KT P6SM SCT120
     FM081000 16005KT P6SM BKN120
     FM081900 14008KT 5SM -SHSN OVC030
     FM082000 14008KT 2SM -SN BR OVC010
     FM082200 14005KT 1SM -SN BR OVC008=



000
FTUS41 KCTP 080332 AAA
TAFAOO
TAF AMD
KAOO 080332Z 0804/0824 VRB03KT P6SM SCT200
     FM081200 15004KT P6SM BKN120
     FM081900 15007KT P6SM -SHSN OVC040
     FM082000 15007KT 3SM -SN BR OVC015=



000
FTUS41 KCTP 080332 AAA
TAFUNV
TAF AMD
KUNV 080332Z 0804/0824 VRB03KT P6SM SCT200
     FM081200 15004KT P6SM BKN120
     FM082000 15007KT P6SM -SHSN OVC040
     FM082200 15007KT 4SM -SN BR OVC020=



000
FTUS41 KCTP 080332 AAA
TAFIPT
TAF AMD
KIPT 080332Z 0804/0824 VRB03KT P6SM SCT200
     FM081300 09005KT P6SM OVC070
     FM082200 12008KT P6SM -SHSN OVC040=



000
FTUS41 KCTP 080332 AAA
TAFIPT
TAF AMD
KIPT 080332Z 0804/0824 VRB03KT P6SM SCT200
     FM081300 09005KT P6SM OVC070
     FM082200 12008KT P6SM -SHSN OVC040=



000
FTUS41 KCTP 080332 AAA
TAFUNV
TAF AMD
KUNV 080332Z 0804/0824 VRB03KT P6SM SCT200
     FM081200 15004KT P6SM BKN120
     FM082000 15007KT P6SM -SHSN OVC040
     FM082200 15007KT 4SM -SN BR OVC020=



000
FTUS41 KCTP 080332 AAA
TAFJST
TAF AMD
KJST 080332Z 0804/0824 VRB03KT P6SM SCT120
     FM081000 16005KT P6SM BKN120
     FM081900 14008KT 5SM -SHSN OVC030
     FM082000 14008KT 2SM -SN BR OVC010
     FM082200 14005KT 1SM -SN BR OVC008=



000
FTUS41 KCTP 080332 AAA
TAFAOO
TAF AMD
KAOO 080332Z 0804/0824 VRB03KT P6SM SCT200
     FM081200 15004KT P6SM BKN120
     FM081900 15007KT P6SM -SHSN OVC040
     FM082000 15007KT 3SM -SN BR OVC015=



000
FTUS41 KCTP 080332 AAA
TAFJST
TAF AMD
KJST 080332Z 0804/0824 VRB03KT P6SM SCT120
     FM081000 16005KT P6SM BKN120
     FM081900 14008KT 5SM -SHSN OVC030
     FM082000 14008KT 2SM -SN BR OVC010
     FM082200 14005KT 1SM -SN BR OVC008=



000
FTUS41 KCTP 080331 AAA
TAFBFD
TAF AMD
KBFD 080331Z 0804/0824 13004KT P6SM BKN120
     FM081000 17008KT P6SM BKN090 OVC150
     FM081900 14008KT P6SM VCSH OVC040
     FM082200 14008KT 6SM -SN OVC025=



000
FTUS41 KCTP 080331 AAA
TAFBFD
TAF AMD
KBFD 080331Z 0804/0824 13004KT P6SM BKN120
     FM081000 17008KT P6SM BKN090 OVC150
     FM081900 14008KT P6SM VCSH OVC040
     FM082200 14008KT 6SM -SN OVC025=



000
FTUS41 KCTP 080331 AAA
TAFBFD
TAF AMD
KBFD 080331Z 0804/0824 13004KT P6SM BKN120
     FM081000 17008KT P6SM BKN090 OVC150
     FM081900 14008KT P6SM VCSH OVC040
     FM082200 14008KT 6SM -SN OVC025=



000
FTUS41 KCTP 072333
TAFIPT
TAF
KIPT 072333Z 0800/0824 VRB03KT P6SM SCT200
     FM081300 09005KT P6SM OVC070
     FM082200 12008KT P6SM -SHSN OVC040=



000
FTUS41 KCTP 072333
TAFMDT
TAF
KMDT 072333Z 0800/0824 VRB05KT P6SM BKN200
     FM081400 08005KT P6SM BKN080
     FM082200 12006KT P6SM VCSH OVC040=



000
FTUS41 KCTP 072333
TAFBFD
TAF
KBFD 072333Z 0800/0824 19004KT P6SM SCT120
     FM081000 17008KT P6SM BKN090 OVC150
     FM081900 14008KT P6SM VCSH OVC040
     FM082200 14008KT 6SM -SN OVC025=



000
FTUS41 KCTP 072333
TAFBFD
TAF
KBFD 072333Z 0800/0824 19004KT P6SM SCT120
     FM081000 17008KT P6SM BKN090 OVC150
     FM081900 14008KT P6SM VCSH OVC040
     FM082200 14008KT 6SM -SN OVC025=



000
FTUS41 KCTP 072333
TAFAOO
TAF
KAOO 072333Z 0800/0824 VRB03KT P6SM SCT200
     FM081200 15004KT P6SM BKN120
     FM081900 15007KT P6SM -SHSN OVC040
     FM082000 15007KT 3SM -SN BR OVC015=



000
FTUS41 KCTP 072333
TAFMDT
TAF
KMDT 072333Z 0800/0824 VRB05KT P6SM BKN200
     FM081400 08005KT P6SM BKN080
     FM082200 12006KT P6SM VCSH OVC040=



000
FTUS41 KCTP 072333
TAFIPT
TAF
KIPT 072333Z 0800/0824 VRB03KT P6SM SCT200
     FM081300 09005KT P6SM OVC070
     FM082200 12008KT P6SM -SHSN OVC040=



000
FTUS41 KCTP 072333
TAFBFD
TAF
KBFD 072333Z 0800/0824 19004KT P6SM SCT120
     FM081000 17008KT P6SM BKN090 OVC150
     FM081900 14008KT P6SM VCSH OVC040
     FM082200 14008KT 6SM -SN OVC025=



000
FTUS41 KCTP 072333
TAFAOO
TAF
KAOO 072333Z 0800/0824 VRB03KT P6SM SCT200
     FM081200 15004KT P6SM BKN120
     FM081900 15007KT P6SM -SHSN OVC040
     FM082000 15007KT 3SM -SN BR OVC015=



000
FTUS41 KCTP 072333
TAFUNV
TAF
KUNV 072333Z 0800/0824 VRB03KT P6SM SCT200
     FM081200 15004KT P6SM BKN120
     FM082000 15007KT P6SM -SHSN OVC040
     FM082200 15007KT 4SM -SN BR OVC020=



000
FTUS41 KCTP 072333
TAFMDT
TAF
KMDT 072333Z 0800/0824 VRB05KT P6SM BKN200
     FM081400 08005KT P6SM BKN080
     FM082200 12006KT P6SM VCSH OVC040=



000
FTUS41 KCTP 072333
TAFJST
TAF
KJST 072333Z 0800/0824 VRB03KT P6SM SCT120
     FM081000 16005KT P6SM BKN120
     FM081900 14008KT 5SM -SHSN OVC030
     FM082000 14008KT 2SM -SN BR OVC010
     FM082200 14005KT 1SM -SN BR OVC008=



000
FTUS41 KCTP 072333
TAFIPT
TAF
KIPT 072333Z 0800/0824 VRB03KT P6SM SCT200
     FM081300 09005KT P6SM OVC070
     FM082200 12008KT P6SM -SHSN OVC040=



000
FTUS41 KCTP 072333
TAFJST
TAF
KJST 072333Z 0800/0824 VRB03KT P6SM SCT120
     FM081000 16005KT P6SM BKN120
     FM081900 14008KT 5SM -SHSN OVC030
     FM082000 14008KT 2SM -SN BR OVC010
     FM082200 14005KT 1SM -SN BR OVC008=



000
FTUS41 KCTP 072333
TAFUNV
TAF
KUNV 072333Z 0800/0824 VRB03KT P6SM SCT200
     FM081200 15004KT P6SM BKN120
     FM082000 15007KT P6SM -SHSN OVC040
     FM082200 15007KT 4SM -SN BR OVC020=



000
FTUS41 KCTP 072151 AAA
TAFMDT
TAF AMD
KMDT 072151Z 0722/0818 11005KT P6SM BKN220=



000
FTUS41 KCTP 072151 AAA
TAFIPT
TAF AMD
KIPT 072151Z 0722/0818 VRB05KT P6SM SCT250=



000
FTUS41 KCTP 072150 AAA
TAFAOO
TAF AMD
KAOO 072150Z 0722/0818 VRB03KT P6SM SCT200
     FM081000 VRB03KT P6SM BKN120 BKN200=



000
FTUS41 KCTP 072150 AAA
TAFUNV
TAF AMD
KUNV 072150Z 0722/0818 VRB03KT P6SM SCT200
     FM081000 VRB03KT P6SM BKN120 BKN200=



000
FTUS41 KCTP 072149 AAA
TAFBFD
TAF AMD
KBFD 072149Z 0722/0818 22007KT P6SM SCT100 SCT200
     FM080100 17008KT P6SM BKN090 OVC150=



000
FTUS41 KCTP 072149 AAA
TAFJST
TAF AMD
KJST 072149Z 0722/0818 VRB03KT P6SM SCT200
     FM081000 15005KT P6SM BKN110 BKN200=



000
FTUS41 KCTP 072149 AAA
TAFJST
TAF AMD
KJST 072149Z 0722/0818 VRB03KT P6SM SCT200
     FM081000 15005KT P6SM BKN110 BKN200=



000
FTUS41 KCTP 071740
TAFIPT
TAF
KIPT 071740Z 0718/0818 VRB05KT P6SM SCT250=



000
FTUS41 KCTP 071740
TAFMDT
TAF
KMDT 071740Z 0718/0818 11005KT P6SM BKN220=



000
FTUS41 KCTP 071740
TAFIPT
TAF
KIPT 071740Z 0718/0818 VRB05KT P6SM SCT250=



000
FTUS41 KCTP 071740
TAFMDT
TAF
KMDT 071740Z 0718/0818 11005KT P6SM BKN220=



000
FTUS41 KCTP 071740
TAFBFD
TAF
KBFD 071740Z 0718/0818 19009KT P6SM SCT250
     FM072100 21007KT P6SM SCT100 SCT200
     FM080100 17008KT P6SM BKN090 OVC150=



000
FTUS41 KCTP 071740
TAFAOO
TAF
KAOO 071740Z 0718/0818 18005KT P6SM SCT230
     FM080100 VRB03KT P6SM SCT200
     FM081000 VRB03KT P6SM BKN120 BKN200=



000
FTUS41 KCTP 071740
TAFJST
TAF
KJST 071740Z 0718/0818 22006KT P6SM SCT220
     FM072300 VRB03KT P6SM SCT200
     FM081000 15005KT P6SM BKN110 BKN200=



000
FTUS41 KCTP 071740
TAFUNV
TAF
KUNV 071740Z 0718/0818 VRB04KT P6SM SCT230
     FM081000 VRB03KT P6SM BKN120 BKN200=



000
FTUS41 KCTP 071740
TAFJST
TAF
KJST 071740Z 0718/0818 22006KT P6SM SCT220
     FM072300 VRB03KT P6SM SCT200
     FM081000 15005KT P6SM BKN110 BKN200=



000
FTUS41 KCTP 071740
TAFBFD
TAF
KBFD 071740Z 0718/0818 19009KT P6SM SCT250
     FM072100 21007KT P6SM SCT100 SCT200
     FM080100 17008KT P6SM BKN090 OVC150=



000
FTUS41 KCTP 071740
TAFAOO
TAF
KAOO 071740Z 0718/0818 18005KT P6SM SCT230
     FM080100 VRB03KT P6SM SCT200
     FM081000 VRB03KT P6SM BKN120 BKN200=



000
FTUS41 KCTP 071740
TAFIPT
TAF
KIPT 071740Z 0718/0818 VRB05KT P6SM SCT250=



000
FTUS41 KCTP 071740
TAFMDT
TAF
KMDT 071740Z 0718/0818 11005KT P6SM BKN220=



000
FTUS41 KCTP 071740
TAFUNV
TAF
KUNV 071740Z 0718/0818 VRB04KT P6SM SCT230
     FM081000 VRB03KT P6SM BKN120 BKN200=



000
FTUS41 KCTP 071740
TAFAOO
TAF
KAOO 071740Z 0718/0818 18005KT P6SM SCT230
     FM080100 VRB03KT P6SM SCT200
     FM081000 VRB03KT P6SM BKN120 BKN200=



000
FTUS41 KCTP 071740
TAFBFD
TAF
KBFD 071740Z 0718/0818 19009KT P6SM SCT250
     FM072100 21007KT P6SM SCT100 SCT200
     FM080100 17008KT P6SM BKN090 OVC150=



000
FTUS41 KCTP 071740
TAFUNV
TAF
KUNV 071740Z 0718/0818 VRB04KT P6SM SCT230
     FM081000 VRB03KT P6SM BKN120 BKN200=



000
FTUS41 KCTP 071740
TAFJST
TAF
KJST 071740Z 0718/0818 22006KT P6SM SCT220
     FM072300 VRB03KT P6SM SCT200
     FM081000 15005KT P6SM BKN110 BKN200=



000
FTUS41 KCTP 071540 AAA
TAFUNV
TAF AMD
KUNV 071540Z 0716/0812 18006KT P6SM SKC
     FM080100 VRB04KT P6SM SCT250
     FM081000 VRB03KT P6SM BKN120 BKN200=



000
FTUS41 KCTP 071540 AAA
TAFJST
TAF AMD
KJST 071540Z 0716/0812 22007KT P6SM SCT200
     FM072300 VRB03KT P6SM SCT200
     FM081000 15005KT P6SM BKN110 BKN200=



000
FTUS41 KCTP 071540 AAA
TAFMDT
TAF AMD
KMDT 071540Z 0716/0812 11005KT P6SM SCT250=



000
FTUS41 KCTP 071540 AAA
TAFAOO
TAF AMD
KAOO 071540Z 0716/0812 18006KT P6SM SCT220
     FM080100 VRB03KT P6SM SCT200
     FM081000 VRB03KT P6SM BKN120 BKN200=



000
FTUS41 KCTP 071540 AAA
TAFBFD
TAF AMD
KBFD 071540Z 0716/0812 19009KT P6SM SCT200
     FM072100 21007KT P6SM SCT100 SCT200
     FM080100 17008KT P6SM BKN090 OVC150=



000
FTUS41 KCTP 071540 AAA
TAFIPT
TAF AMD
KIPT 071540Z 0716/0812 VRB05KT P6SM SCT250=



000
FTUS41 KCTP 071132
TAFJST
TAF
KJST 071132Z 0712/0812 25006KT P6SM SKC
     FM072300 20007KT P6SM SCT250
     FM081100 19008KT P6SM SCT100 BKN250=



000
FTUS41 KCTP 071132
TAFUNV
TAF
KUNV 071132Z 0712/0812 21006KT P6SM SKC
     FM080100 19006KT P6SM SCT250=



000
FTUS41 KCTP 071132
TAFBFD
TAF
KBFD 071132Z 0712/0812 24006KT P6SM SKC
     FM072100 21007KT P6SM SCT250
     FM081000 19008KT P6SM SCT100 BKN250=



000
FTUS41 KCTP 071132
TAFIPT
TAF
KIPT 071132Z 0712/0812 VRB05KT P6SM SKC=



000
FTUS41 KCTP 071132
TAFAOO
TAF
KAOO 071132Z 0712/0812 22007KT P6SM SKC
     FM080100 19007KT P6SM SCT250=



000
FTUS41 KCTP 071132
TAFMDT
TAF
KMDT 071132Z 0712/0812 10006KT P6SM SCT250=



000
FTUS41 KCTP 071132
TAFAOO
TAF
KAOO 071132Z 0712/0812 22007KT P6SM SKC
     FM080100 19007KT P6SM SCT250=



000
FTUS41 KCTP 071132
TAFUNV
TAF
KUNV 071132Z 0712/0812 21006KT P6SM SKC
     FM080100 19006KT P6SM SCT250=



000
FTUS41 KCTP 071132
TAFJST
TAF
KJST 071132Z 0712/0812 25006KT P6SM SKC
     FM072300 20007KT P6SM SCT250
     FM081100 19008KT P6SM SCT100 BKN250=



000
FTUS41 KCTP 071132
TAFMDT
TAF
KMDT 071132Z 0712/0812 10006KT P6SM SCT250=



000
FTUS41 KCTP 071132
TAFIPT
TAF
KIPT 071132Z 0712/0812 VRB05KT P6SM SKC=



000
FTUS41 KCTP 071132
TAFBFD
TAF
KBFD 071132Z 0712/0812 24006KT P6SM SKC
     FM072100 21007KT P6SM SCT250
     FM081000 19008KT P6SM SCT100 BKN250=



000
FTUS41 KCTP 070940 AAA
TAFMDT
TAF AMD
KMDT 070940Z 0710/0806 10006KT P6SM SCT250=



000
FTUS41 KCTP 070940 AAA
TAFBFD
TAF AMD
KBFD 070940Z 0710/0806 24006KT P6SM SKC
     FM072100 21007KT P6SM SCT250=



000
FTUS41 KCTP 070940 AAA
TAFJST
TAF AMD
KJST 070940Z 0710/0806 25006KT P6SM SKC
     FM072300 20007KT P6SM SCT250=



000
FTUS41 KCTP 070940 AAA
TAFIPT
TAF AMD
KIPT 070940Z 0710/0806 VRB05KT P6SM SKC=



000
FTUS41 KCTP 070940 AAA
TAFUNV
TAF AMD
KUNV 070940Z 0710/0806 21006KT P6SM SKC
     FM080100 19006KT P6SM SCT250=



000
FTUS41 KCTP 070940 AAA
TAFAOO
TAF AMD
KAOO 070940Z 0710/0806 22007KT P6SM SKC
     FM080100 19007KT P6SM SCT250=



000
FTUS41 KCTP 070533
TAFUNV
TAF
KUNV 070533Z 0706/0806 21006KT P6SM SKC
     FM080100 19006KT P6SM SCT250=



000
FTUS41 KCTP 070533
TAFAOO
TAF
KAOO 070533Z 0706/0806 22007KT P6SM SKC
     FM080100 19007KT P6SM SCT250=



000
FTUS41 KCTP 070533
TAFIPT
TAF
KIPT 070533Z 0706/0806 VRB05KT P6SM SKC=



000
FTUS41 KCTP 070533
TAFJST
TAF
KJST 070533Z 0706/0806 25006KT P6SM SKC
     FM072300 20007KT P6SM SCT250=



000
FTUS41 KCTP 070533
TAFBFD
TAF
KBFD 070533Z 0706/0806 24006KT P6SM SKC
     FM072100 21007KT P6SM SCT250=



000
FTUS41 KCTP 070533
TAFJST
TAF
KJST 070533Z 0706/0806 25006KT P6SM SKC
     FM072300 20007KT P6SM SCT250=



000
FTUS41 KCTP 070533
TAFMDT
TAF
KMDT 070533Z 0706/0806 10006KT P6SM SCT250=



000
FTUS41 KCTP 070533
TAFAOO
TAF
KAOO 070533Z 0706/0806 22007KT P6SM SKC
     FM080100 19007KT P6SM SCT250=



000
FTUS41 KCTP 070533
TAFBFD
TAF
KBFD 070533Z 0706/0806 24006KT P6SM SKC
     FM072100 21007KT P6SM SCT250=



000
FTUS41 KCTP 070533
TAFIPT
TAF
KIPT 070533Z 0706/0806 VRB05KT P6SM SKC=



000
FTUS41 KCTP 070533
TAFUNV
TAF
KUNV 070533Z 0706/0806 21006KT P6SM SKC
     FM080100 19006KT P6SM SCT250=



000
FTUS41 KCTP 070533
TAFJST
TAF
KJST 070533Z 0706/0806 25006KT P6SM SKC
     FM072300 20007KT P6SM SCT250=



000
FTUS41 KCTP 070533
TAFMDT
TAF
KMDT 070533Z 0706/0806 10006KT P6SM SCT250=



000
FTUS41 KCTP 070533
TAFAOO
TAF
KAOO 070533Z 0706/0806 22007KT P6SM SKC
     FM080100 19007KT P6SM SCT250=



000
FTUS41 KCTP 070533
TAFIPT
TAF
KIPT 070533Z 0706/0806 VRB05KT P6SM SKC=



000
FTUS41 KCTP 070340 AAA
TAFMDT
TAF AMD
KMDT 070340Z 0704/0724 VRB03KT P6SM SCT250=



000
FTUS41 KCTP 070340 AAA
TAFMDT
TAF AMD
KMDT 070340Z 0704/0724 VRB03KT P6SM SCT250=



000
FTUS41 KCTP 070340 AAA
TAFIPT
TAF AMD
KIPT 070340Z 0704/0724 VRB02KT P6SM FEW250=



000
FTUS41 KCTP 070340 AAA
TAFIPT
TAF AMD
KIPT 070340Z 0704/0724 VRB02KT P6SM FEW250=



000
FTUS41 KCTP 070339 AAA
TAFUNV
TAF AMD
KUNV 070339Z 0704/0724 23004KT P6SM FEW250=



000
FTUS41 KCTP 070339 AAA
TAFAOO
TAF AMD
KAOO 070339Z 0704/0724 23004KT P6SM SCT250=



000
FTUS41 KCTP 070338 AAA
TAFBFD
TAF AMD
KBFD 070338Z 0704/0724 23003KT P6SM SKC
     FM071200 19005KT P6SM FEW200=



000
FTUS41 KCTP 070338 AAA
TAFJST
TAF AMD
KJST 070338Z 0704/0724 24005KT P6SM SCT250=



000
FTUS41 KCTP 062330
TAFBFD
TAF
KBFD 062330Z 0700/0724 23003KT P6SM SKC
     FM071200 19005KT P6SM FEW200=



000
FTUS41 KCTP 062330
TAFAOO
TAF
KAOO 062330Z 0700/0724 23004KT P6SM SCT250=



000
FTUS41 KCTP 062330
TAFUNV
TAF
KUNV 062330Z 0700/0724 23004KT P6SM FEW250=



000
FTUS41 KCTP 062330
TAFMDT
TAF
KMDT 062330Z 0700/0724 VRB03KT P6SM SCT250=



000
FTUS41 KCTP 062330
TAFIPT
TAF
KIPT 062330Z 0700/0724 18008KT P6SM FEW250
     FM070100 VRB03KT P6SM FEW250=



000
FTUS41 KCTP 062330
TAFUNV
TAF
KUNV 062330Z 0700/0724 23004KT P6SM FEW250=



000
FTUS41 KCTP 062330
TAFMDT
TAF
KMDT 062330Z 0700/0724 VRB03KT P6SM SCT250=



000
FTUS41 KCTP 062330
TAFJST
TAF
KJST 062330Z 0700/0724 24005KT P6SM SCT250=



000
FTUS41 KCTP 062330
TAFJST
TAF
KJST 062330Z 0700/0724 24005KT P6SM SCT250=



000
FTUS41 KCTP 062330
TAFMDT
TAF
KMDT 062330Z 0700/0724 VRB03KT P6SM SCT250=



000
FTUS41 KCTP 062330
TAFIPT
TAF
KIPT 062330Z 0700/0724 18008KT P6SM FEW250
     FM070100 VRB03KT P6SM FEW250=



000
FTUS41 KCTP 062330
TAFUNV
TAF
KUNV 062330Z 0700/0724 23004KT P6SM FEW250=



000
FTUS41 KCTP 062330
TAFAOO
TAF
KAOO 062330Z 0700/0724 23004KT P6SM SCT250=



000
FTUS41 KCTP 062330
TAFBFD
TAF
KBFD 062330Z 0700/0724 23003KT P6SM SKC
     FM071200 19005KT P6SM FEW200=



000
FTUS41 KCTP 062330
TAFIPT
TAF
KIPT 062330Z 0700/0724 18008KT P6SM FEW250
     FM070100 VRB03KT P6SM FEW250=



000
FTUS41 KCTP 062330
TAFBFD
TAF
KBFD 062330Z 0700/0724 23003KT P6SM SKC
     FM071200 19005KT P6SM FEW200=



000
FTUS41 KCTP 062330
TAFJST
TAF
KJST 062330Z 0700/0724 24005KT P6SM SCT250=



000
FTUS41 KCTP 062330
TAFAOO
TAF
KAOO 062330Z 0700/0724 23004KT P6SM SCT250=



000
FTUS41 KCTP 062121 AAA
TAFMDT
TAF AMD
KMDT 062121Z 0621/0718 22007KT P6SM SCT250
     FM070200 VRB02KT P6SM SCT250=



000
FTUS41 KCTP 062120 AAA
TAFIPT
TAF AMD
KIPT 062120Z 0621/0718 VRB04KT P6SM FEW250=



000
FTUS41 KCTP 062118 AAA
TAFUNV
TAF AMD
KUNV 062118Z 0621/0718 24008KT P6SM FEW250=



000
FTUS41 KCTP 062118 AAA
TAFUNV
TAF AMD
KUNV 062118Z 0621/0718 24008KT P6SM FEW250=



000
FTUS41 KCTP 062118 AAA
TAFUNV
TAF AMD
KUNV 062118Z 0621/0718 24008KT P6SM FEW250=



000
FTUS41 KCTP 062117 AAA
TAFAOO
TAF AMD
KAOO 062117Z 0621/0718 23008KT P6SM SCT250=



000
FTUS41 KCTP 062115 AAA
TAFJST
TAF AMD
KJST 062115Z 0621/0718 24007KT P6SM SCT250=



000
FTUS41 KCTP 062113 AAA
TAFBFD
TAF AMD
KBFD 062113Z 0621/0718 26005KT P6SM SKC
     FM071200 19005KT P6SM FEW200=



    US Dept of Commerce
    National Oceanic and Atmospheric Administration
    National Weather Service
    1325 East West Highway
    Silver Spring, MD 20910
    Page Author: NWS Internet Services Team
Disclaimer
Information Quality
Credits
Glossary
Privacy Policy
Freedom of Information Act (FOIA)
About Us
Career Opportunities